createdAt,value
2018-07-05T00:03:41.051Z,99958.00
2018-07-05T00:09:01.464Z,99968.00
2018-07-05T00:14:21.920Z,99966.00
2018-07-05T00:19:42.288Z,99971.00
2018-07-05T00:25:02.498Z,99969.00
2018-07-05T00:30:23.241Z,99977.00
2018-07-05T00:35:43.444Z,99964.00
2018-07-05T00:41:03.946Z,99936.00
2018-07-05T00:46:24.455Z,99949.00
2018-07-05T00:51:44.860Z,99958.00
2018-07-05T00:57:05.013Z,99952.00
2018-07-05T01:02:25.449Z,99945.00
2018-07-05T01:07:45.766Z,99945.00
2018-07-05T01:13:06.311Z,99953.00
2018-07-05T01:18:26.656Z,99965.00
2018-07-05T01:23:47.004Z,99962.00
2018-07-05T01:29:07.123Z,99958.00
2018-07-05T01:34:27.713Z,99957.00
2018-07-05T01:39:48.260Z,99961.00
2018-07-05T01:45:08.691Z,99967.00
2018-07-05T01:50:29.049Z,99968.00
2018-07-05T01:55:49.392Z,99970.00
2018-07-05T02:01:09.760Z,99982.00
2018-07-05T02:06:30.107Z,99984.00
2018-07-05T02:11:50.517Z,99981.00
2018-07-05T02:17:10.885Z,99968.00
2018-07-05T02:22:31.553Z,99957.00
2018-07-05T02:27:51.848Z,99955.00
2018-07-05T02:33:12.164Z,99957.00
2018-07-05T02:38:32.348Z,99960.00
2018-07-05T02:43:52.692Z,99953.00
2018-07-05T02:49:13.083Z,99953.00
2018-07-05T02:54:33.395Z,99956.00
2018-07-05T02:59:53.636Z,99945.00
2018-07-05T03:05:14.360Z,99943.00
2018-07-05T03:10:34.868Z,99956.00
2018-07-05T03:15:55.369Z,99965.00
2018-07-05T03:21:15.736Z,99959.00
2018-07-05T03:26:35.955Z,99977.00
2018-07-05T03:31:56.308Z,99975.00
2018-07-05T03:37:16.695Z,99995.00
2018-07-05T03:42:37.012Z,99997.00
2018-07-05T03:47:57.423Z,99972.00
2018-07-05T03:53:17.883Z,99943.00
2018-07-05T03:58:32.266Z,99942.00
2018-07-05T04:03:52.643Z,99951.00
2018-07-05T04:09:12.935Z,99958.00
2018-07-05T04:14:33.189Z,99958.00
2018-07-05T04:19:53.347Z,99960.00
2018-07-05T04:25:13.890Z,99970.00
2018-07-05T04:30:34.255Z,99967.00
2018-07-05T04:35:54.469Z,99962.00
2018-07-05T04:41:14.924Z,99951.00
2018-07-05T04:46:35.132Z,99959.00
2018-07-05T04:51:55.496Z,99936.00
2018-07-05T04:57:15.817Z,99957.00
2018-07-05T05:02:36.235Z,99970.00
2018-07-05T05:07:56.452Z,99957.00
2018-07-05T05:13:16.775Z,99973.00
2018-07-05T05:18:37.179Z,99981.00
2018-07-05T05:23:57.342Z,99978.00
2018-07-05T05:29:17.657Z,99989.00
2018-07-05T05:34:38.056Z,99984.00
2018-07-05T05:39:58.723Z,99980.00
2018-07-05T05:45:19.212Z,99984.00
2018-07-05T05:50:39.547Z,99978.00
2018-07-05T05:55:59.958Z,99986.00
2018-07-05T06:01:20.463Z,99982.00
2018-07-05T06:06:40.643Z,99986.00
2018-07-05T06:12:01.079Z,99983.00
2018-07-05T06:17:21.314Z,100001.00
2018-07-05T06:22:41.500Z,100000.00
2018-07-05T06:28:02.113Z,100011.00
2018-07-05T06:33:22.479Z,99992.00
2018-07-05T06:38:42.824Z,99984.00
2018-07-05T06:44:03.545Z,99979.00
2018-07-05T06:49:23.919Z,99970.00
2018-07-05T06:54:44.236Z,99967.00
2018-07-05T07:00:04.577Z,99964.00
2018-07-05T07:05:25.509Z,99991.00
2018-07-05T07:10:45.824Z,99994.00
2018-07-05T07:16:06.038Z,99997.00
2018-07-05T07:21:26.489Z,99980.00
2018-07-05T07:26:46.746Z,99989.00
2018-07-05T07:32:07.182Z,99990.00
2018-07-05T07:37:27.360Z,99983.00
2018-07-05T07:42:29.028Z,99979.00
2018-07-05T07:47:30.737Z,99975.00
2018-07-05T07:52:32.170Z,99982.00
2018-07-05T07:57:33.848Z,99983.00
2018-07-05T08:02:35.540Z,99980.00
2018-07-05T08:07:36.987Z,99983.00
2018-07-05T08:12:38.411Z,99979.00
2018-07-05T08:17:40.043Z,99979.00
2018-07-05T08:22:41.706Z,99981.00
2018-07-05T08:27:43.236Z,99985.00
2018-07-05T08:32:44.763Z,99986.00
2018-07-05T08:37:46.214Z,99981.00
2018-07-05T08:42:48.292Z,99972.00
2018-07-05T08:47:49.843Z,99972.00
2018-07-05T08:52:51.532Z,99968.00
2018-07-05T08:57:53.101Z,99964.00
2018-07-05T09:02:54.797Z,99966.00
2018-07-05T09:07:56.460Z,99960.00
2018-07-05T09:12:57.953Z,99963.00
2018-07-05T09:17:59.504Z,99966.00
2018-07-05T09:23:01.115Z,99968.00
2018-07-05T09:28:02.574Z,99968.00
2018-07-05T09:33:04.004Z,99967.00
2018-07-05T09:38:05.453Z,99965.00
2018-07-05T09:43:07.149Z,99967.00
2018-07-05T09:48:08.603Z,99964.00
2018-07-05T09:53:10.277Z,99964.00
2018-07-05T09:58:11.959Z,99969.00
2018-07-05T10:03:13.409Z,99972.00
2018-07-05T10:08:16.038Z,99972.00
2018-07-05T10:13:17.713Z,99973.00
2018-07-05T10:18:19.091Z,99968.00
2018-07-05T10:23:20.719Z,99957.00
2018-07-05T10:28:22.153Z,99964.00
2018-07-05T10:33:42.502Z,99969.00
2018-07-05T10:38:44.204Z,99957.00
2018-07-05T10:44:04.489Z,99958.00
2018-07-05T10:49:24.904Z,99971.00
2018-07-05T10:54:46.169Z,99970.00
2018-07-05T11:00:06.852Z,99964.00
2018-07-05T11:05:27.359Z,99969.00
2018-07-05T11:10:47.527Z,99969.00
2018-07-05T11:16:07.781Z,99961.00
2018-07-05T11:21:28.060Z,99970.00
2018-07-05T11:26:48.608Z,99960.00
2018-07-05T11:32:09.108Z,99962.00
2018-07-05T11:37:29.509Z,99975.00
2018-07-05T11:42:50.045Z,99983.00
2018-07-05T11:48:10.232Z,99982.00
2018-07-05T11:53:30.461Z,99968.00
2018-07-05T11:58:50.776Z,99973.00
2018-07-05T12:04:11.307Z,99980.00
2018-07-05T12:09:31.912Z,99979.00
2018-07-05T12:14:52.248Z,99973.00
2018-07-05T12:20:12.776Z,99969.00
2018-07-05T12:25:33.291Z,99955.00
2018-07-05T12:30:53.655Z,99941.00
2018-07-05T12:36:14.147Z,99937.00
2018-07-05T12:41:34.572Z,99944.00
2018-07-05T12:46:54.732Z,99940.00
2018-07-05T12:52:15.193Z,99928.00
2018-07-05T12:57:35.525Z,99944.00
2018-07-05T13:02:55.976Z,99956.00
2018-07-05T13:08:16.424Z,99969.00
2018-07-05T13:13:36.664Z,99965.00
2018-07-05T13:18:57.320Z,99968.00
2018-07-05T13:24:17.471Z,99964.00
2018-07-05T13:29:37.578Z,99958.00
2018-07-05T13:34:57.972Z,99968.00
2018-07-05T13:40:18.812Z,99966.00
2018-07-05T13:45:39.217Z,99972.00
2018-07-05T13:50:59.417Z,99984.00
2018-07-05T13:56:19.633Z,99994.00
2018-07-05T14:01:40.139Z,99992.00
2018-07-05T14:07:00.540Z,99996.00
2018-07-05T14:12:20.791Z,99994.00
2018-07-05T14:17:41.026Z,99986.00
2018-07-05T14:23:01.439Z,99980.00
2018-07-05T14:28:21.718Z,99970.00
2018-07-05T14:33:41.983Z,99979.00
2018-07-05T14:39:02.337Z,99972.00
2018-07-05T14:44:22.400Z,99964.00
2018-07-05T14:49:42.554Z,99969.00
2018-07-05T14:55:02.938Z,99963.00
2018-07-05T15:00:23.235Z,99967.00
2018-07-05T15:05:43.804Z,99969.00
2018-07-05T15:11:04.318Z,99970.00
2018-07-05T15:16:24.670Z,99959.00
2018-07-05T15:21:45.194Z,99960.00
2018-07-05T15:27:05.557Z,99954.00
2018-07-05T15:32:25.889Z,99959.00
2018-07-05T15:37:46.539Z,99963.00
2018-07-05T15:43:06.924Z,99965.00
2018-07-05T15:48:27.323Z,99976.00
2018-07-05T15:53:47.843Z,99969.00
2018-07-05T15:59:07.972Z,99970.00
2018-07-05T16:04:28.504Z,99976.00
2018-07-05T16:09:49.033Z,99962.00
2018-07-05T16:15:09.296Z,99953.00
2018-07-05T16:20:29.891Z,99964.00
2018-07-05T16:25:50.159Z,99949.00
2018-07-05T16:31:10.550Z,99951.00
2018-07-05T16:36:30.725Z,99938.00
2018-07-05T16:41:51.220Z,99937.00
2018-07-05T16:47:11.589Z,99937.00
2018-07-05T16:52:31.981Z,99929.00
2018-07-05T16:57:52.611Z,99933.00
2018-07-05T17:03:13.105Z,99941.00
2018-07-05T17:08:33.361Z,99938.00
2018-07-05T17:13:53.751Z,99949.00
2018-07-05T17:19:14.066Z,99950.00
2018-07-05T17:24:34.680Z,99957.00
2018-07-05T17:29:55.077Z,99965.00
2018-07-05T17:35:15.496Z,99967.00
2018-07-05T17:40:35.883Z,99970.00
2018-07-05T17:45:56.295Z,99972.00
2018-07-05T17:51:16.517Z,99970.00
2018-07-05T17:56:37.126Z,99974.00
2018-07-05T18:01:57.577Z,99973.00
2018-07-05T18:07:18.014Z,99992.00
2018-07-05T18:12:38.564Z,99988.00
2018-07-05T18:17:58.983Z,99984.00
2018-07-05T18:23:19.625Z,99989.00
2018-07-05T18:28:39.916Z,99996.00
2018-07-05T18:34:00.674Z,99996.00
2018-07-05T18:39:20.970Z,100005.00
2018-07-05T18:44:35.554Z,100012.00
2018-07-05T18:49:55.778Z,100015.00
2018-07-05T18:55:16.031Z,100012.00
2018-07-05T19:00:36.443Z,100020.00
2018-07-05T19:05:56.645Z,100019.00
2018-07-05T19:11:17.181Z,100027.00
2018-07-05T19:16:37.582Z,100031.00
2018-07-05T19:21:57.704Z,100034.00
2018-07-05T19:27:17.987Z,100028.00
2018-07-05T19:32:38.641Z,100033.00
2018-07-05T19:37:59.240Z,100045.00
2018-07-05T19:43:19.659Z,100042.00
2018-07-05T19:48:40.172Z,100053.00
2018-07-05T19:54:00.571Z,100052.00
2018-07-05T19:59:20.994Z,100064.00
2018-07-05T20:04:41.327Z,100064.00
2018-07-05T20:10:01.829Z,100073.00
2018-07-05T20:15:22.304Z,100070.00
2018-07-05T20:20:42.838Z,100065.00
2018-07-05T20:26:03.137Z,100078.00
2018-07-05T20:31:23.711Z,100075.00
2018-07-05T20:36:44.509Z,100079.00
2018-07-05T20:42:05.221Z,100080.00
2018-07-05T20:47:25.857Z,100077.00
2018-07-05T20:52:46.541Z,100078.00
2018-07-05T20:58:06.757Z,100077.00
2018-07-05T21:03:27.033Z,100083.00
2018-07-05T21:08:47.478Z,100083.00
2018-07-05T21:14:08.013Z,100087.00
2018-07-05T21:19:28.341Z,100095.00
2018-07-05T21:24:48.753Z,100100.00
2018-07-05T21:30:09.303Z,100101.00
2018-07-05T21:35:29.643Z,100098.00
2018-07-05T21:40:50.192Z,100107.00
2018-07-05T21:46:10.680Z,100113.00
2018-07-05T21:51:31.067Z,100131.00
2018-07-05T21:56:51.235Z,100129.00
2018-07-05T22:02:11.665Z,100129.00
2018-07-05T22:07:31.839Z,100132.00
2018-07-05T22:12:52.302Z,100143.00
2018-07-05T22:18:18.476Z,100142.00
2018-07-05T22:23:44.517Z,100144.00
2018-07-05T22:29:10.628Z,100155.00
2018-07-05T22:34:31.155Z,100155.00
2018-07-05T22:39:51.564Z,100144.00
2018-07-05T22:45:11.752Z,100148.00
2018-07-05T22:50:32.765Z,100146.00
2018-07-05T22:55:53.968Z,100140.00
2018-07-05T23:01:14.820Z,100138.00
2018-07-05T23:06:35.484Z,100147.00
2018-07-05T23:11:56.048Z,100152.00
2018-07-05T23:17:16.506Z,100156.00
2018-07-05T23:22:36.916Z,100150.00
2018-07-05T23:27:57.361Z,100158.00
2018-07-05T23:33:17.545Z,100147.00
2018-07-05T23:38:37.947Z,100149.00
2018-07-05T23:43:58.290Z,100148.00
2018-07-05T23:49:18.584Z,100147.00
2018-07-05T23:54:39.064Z,100141.00
2018-07-05T23:59:59.437Z,100147.00
